createdAt,value
2022-12-04T00:01:19.375Z,48.66
2022-12-04T00:03:46.535Z,48.30
2022-12-04T00:06:19.735Z,48.70
2022-12-04T00:08:47.947Z,48.74
2022-12-04T00:11:22.026Z,48.53
2022-12-04T00:13:49.796Z,48.35
2022-12-04T00:16:24.112Z,48.24
2022-12-04T00:18:52.321Z,48.14
2022-12-04T00:21:20.626Z,48.67
2022-12-04T00:23:48.015Z,48.96
2022-12-04T00:26:23.700Z,48.71
2022-12-04T00:28:51.755Z,48.74
2022-12-04T00:31:25.524Z,48.68
2022-12-04T00:33:53.277Z,49.09
2022-12-04T00:36:22.625Z,48.61
2022-12-04T00:38:50.319Z,48.95
2022-12-04T00:41:20.625Z,48.74
2022-12-04T00:43:48.315Z,49.27
2022-12-04T00:46:16.038Z,49.42
2022-12-04T00:48:44.202Z,49.21
2022-12-04T00:51:16.799Z,49.14
2022-12-04T00:53:45.020Z,49.62
2022-12-04T00:56:15.684Z,48.53
2022-12-04T00:58:43.929Z,48.88
2022-12-04T01:01:17.272Z,49.00
2022-12-04T01:03:44.946Z,49.01
2022-12-04T01:06:21.736Z,49.10
2022-12-04T01:08:53.426Z,48.94
2022-12-04T01:11:22.395Z,48.94
2022-12-04T01:13:49.634Z,49.59
2022-12-04T01:16:23.307Z,49.88
2022-12-04T01:18:50.736Z,49.38
2022-12-04T01:21:18.311Z,48.84
2022-12-04T01:23:46.001Z,49.26
2022-12-04T01:26:13.570Z,49.64
2022-12-04T01:28:40.855Z,49.46
2022-12-04T01:31:11.153Z,49.91
2022-12-04T01:33:39.033Z,49.45
2022-12-04T01:36:10.288Z,49.70
2022-12-04T01:38:37.831Z,50.18
2022-12-04T01:41:05.746Z,49.29
2022-12-04T01:43:34.561Z,49.23
2022-12-04T01:46:02.734Z,49.40
2022-12-04T01:48:34.859Z,48.81
2022-12-04T01:51:13.972Z,49.20
2022-12-04T01:53:47.008Z,49.59
2022-12-04T01:56:15.917Z,49.86
2022-12-04T01:58:47.630Z,49.73
2022-12-04T02:01:14.883Z,49.97
2022-12-04T02:03:42.100Z,50.10
2022-12-04T02:06:09.335Z,50.37
2022-12-04T02:08:37.920Z,50.53
2022-12-04T02:11:30.893Z,50.68
2022-12-04T02:14:04.113Z,50.28
2022-12-04T02:17:06.819Z,50.33
2022-12-04T02:19:55.808Z,50.32
2022-12-04T02:22:38.420Z,51.65
2022-12-04T02:25:36.040Z,51.15
2022-12-04T02:28:48.007Z,50.85
2022-12-04T02:31:21.989Z,50.34
2022-12-04T02:33:58.968Z,50.62
2022-12-04T02:36:31.577Z,50.90
2022-12-04T02:39:13.072Z,50.60
2022-12-04T02:41:55.569Z,50.94
2022-12-04T02:44:27.106Z,51.31
2022-12-04T02:47:09.464Z,50.48
2022-12-04T02:49:47.565Z,50.68
2022-12-04T02:52:21.541Z,50.19
2022-12-04T02:54:55.046Z,50.84
2022-12-04T02:57:28.202Z,50.69
2022-12-04T02:59:58.054Z,50.74
2022-12-04T03:02:38.837Z,51.16
2022-12-04T03:05:13.047Z,50.84
2022-12-04T03:07:48.928Z,50.60
2022-12-04T03:10:21.033Z,50.72
2022-12-04T03:12:54.716Z,50.53
2022-12-04T03:15:33.599Z,50.34
2022-12-04T03:18:06.295Z,50.19
2022-12-04T03:20:36.782Z,49.99
2022-12-04T03:23:10.272Z,50.43
2022-12-04T03:25:55.213Z,49.91
2022-12-04T03:28:50.928Z,50.04
2022-12-04T03:31:25.078Z,50.42
2022-12-04T03:33:57.157Z,49.07
2022-12-04T03:36:59.603Z,49.55
2022-12-04T03:40:01.735Z,49.31
2022-12-04T03:42:38.899Z,49.77
2022-12-04T03:45:35.584Z,49.56
2022-12-04T03:48:23.620Z,49.37
2022-12-04T03:51:18.323Z,50.16
2022-12-04T03:54:13.396Z,50.04
2022-12-04T03:56:47.613Z,50.15
2022-12-04T03:59:24.531Z,50.26
2022-12-04T04:01:52.512Z,50.40
2022-12-04T04:04:26.079Z,50.93
2022-12-04T04:07:05.114Z,50.77
2022-12-04T04:09:37.580Z,50.56
2022-12-04T04:12:14.429Z,50.78
2022-12-04T04:15:08.145Z,50.61
2022-12-04T04:17:59.785Z,50.61
2022-12-04T04:21:12.383Z,50.75
2022-12-04T04:24:09.230Z,50.71
2022-12-04T04:26:42.273Z,51.20
2022-12-04T04:29:10.376Z,51.66
2022-12-04T04:32:12.561Z,50.92
2022-12-04T04:34:45.683Z,50.63
2022-12-04T04:37:39.425Z,51.10
2022-12-04T04:40:09.503Z,51.32
2022-12-04T04:42:50.043Z,51.40
2022-12-04T04:45:36.333Z,51.76
2022-12-04T04:48:09.008Z,52.00
2022-12-04T04:50:38.993Z,51.81
2022-12-04T04:53:12.207Z,51.84
2022-12-04T04:55:39.321Z,52.26
2022-12-04T04:58:10.396Z,52.31
2022-12-04T05:00:38.487Z,52.33
2022-12-04T05:03:06.618Z,52.30
2022-12-04T05:05:33.784Z,52.40
2022-12-04T05:08:00.994Z,52.14
2022-12-04T05:10:28.393Z,52.14
2022-12-04T05:12:55.450Z,52.42
2022-12-04T05:15:22.631Z,52.67
2022-12-04T05:17:49.880Z,51.53
2022-12-04T05:20:16.973Z,51.78
2022-12-04T05:22:44.138Z,51.74
2022-12-04T05:25:11.680Z,52.06
2022-12-04T05:27:39.170Z,51.43
2022-12-04T05:30:06.894Z,51.71
2022-12-04T05:32:33.955Z,51.87
2022-12-04T05:35:01.668Z,52.18
2022-12-04T05:37:31.125Z,52.58
2022-12-04T05:39:58.566Z,52.09
2022-12-04T05:42:26.097Z,51.46
2022-12-04T05:44:53.354Z,52.08
2022-12-04T05:47:20.617Z,51.93
2022-12-04T05:49:47.696Z,52.36
2022-12-04T05:52:15.167Z,51.76
2022-12-04T05:54:42.319Z,52.49
2022-12-04T05:57:09.759Z,52.00
2022-12-04T05:59:38.033Z,51.81
2022-12-04T06:02:05.273Z,51.48
2022-12-04T06:04:32.661Z,51.74
2022-12-04T06:06:59.788Z,51.54
2022-12-04T06:09:27.086Z,51.23
2022-12-04T06:11:57.757Z,51.75
2022-12-04T06:14:24.940Z,51.77
2022-12-04T06:16:52.093Z,52.20
2022-12-04T06:19:21.583Z,51.75
2022-12-04T06:21:51.658Z,52.30
2022-12-04T06:24:24.781Z,52.47
2022-12-04T06:27:26.136Z,51.14
2022-12-04T06:29:44.543Z,50.81
2022-12-04T06:32:14.023Z,50.85
2022-12-04T06:34:46.188Z,50.37
2022-12-04T06:37:13.365Z,51.24
2022-12-04T06:39:41.525Z,50.92
2022-12-04T06:42:08.582Z,49.71
2022-12-04T06:44:36.560Z,50.68
2022-12-04T06:47:04.059Z,50.03
2022-12-04T06:49:31.124Z,49.94
2022-12-04T06:51:58.243Z,50.56
2022-12-04T06:54:26.402Z,50.56
2022-12-04T06:56:53.514Z,50.20
2022-12-04T06:59:20.681Z,49.92
2022-12-04T07:01:47.763Z,50.36
2022-12-04T07:04:16.098Z,51.10
2022-12-04T07:06:43.491Z,49.77
2022-12-04T07:09:16.633Z,49.08
2022-12-04T07:11:44.975Z,49.35
2022-12-04T07:14:15.116Z,49.25
2022-12-04T07:16:43.291Z,49.98
2022-12-04T07:19:12.915Z,49.69
2022-12-04T07:21:40.697Z,49.93
2022-12-04T07:24:07.982Z,49.90
2022-12-04T07:26:35.209Z,50.23
2022-12-04T07:29:02.378Z,49.48
2022-12-04T07:31:30.516Z,49.80
2022-12-04T07:33:58.577Z,50.94
2022-12-04T07:36:27.183Z,50.95
2022-12-04T07:38:58.015Z,50.14
2022-12-04T07:41:25.405Z,48.75
2022-12-04T07:43:53.584Z,48.31
2022-12-04T07:46:24.161Z,48.47
2022-12-04T07:48:51.469Z,49.78
2022-12-04T07:51:22.709Z,48.33
2022-12-04T07:53:51.281Z,47.46
2022-12-04T07:56:19.259Z,48.15
2022-12-04T07:58:47.443Z,46.82
2022-12-04T08:01:20.982Z,46.20
2022-12-04T08:03:50.543Z,46.54
2022-12-04T08:06:20.991Z,47.23
2022-12-04T08:08:49.764Z,46.47
2022-12-04T08:11:19.939Z,46.84
2022-12-04T08:13:47.290Z,47.37
2022-12-04T08:16:15.667Z,47.17
2022-12-04T08:18:47.006Z,46.38
2022-12-04T08:21:21.761Z,45.25
2022-12-04T08:23:54.329Z,46.25
2022-12-04T08:26:23.466Z,45.40
2022-12-04T08:28:54.170Z,45.54
2022-12-04T08:31:24.727Z,46.18
2022-12-04T08:33:55.561Z,44.61
2022-12-04T08:36:22.990Z,44.76
2022-12-04T08:38:51.134Z,44.72
2022-12-04T08:41:21.647Z,44.12
2022-12-04T08:43:49.549Z,45.08
2022-12-04T08:46:19.569Z,44.45
2022-12-04T08:48:47.634Z,44.79
2022-12-04T08:51:24.303Z,45.00
2022-12-04T08:53:59.890Z,45.04
2022-12-04T08:56:29.957Z,44.96
2022-12-04T08:58:59.084Z,44.64
2022-12-04T09:01:28.381Z,44.44
2022-12-04T09:03:56.522Z,44.98
2022-12-04T09:06:24.846Z,45.38
2022-12-04T09:08:55.454Z,44.79
2022-12-04T09:11:27.359Z,45.36
2022-12-04T09:13:54.966Z,45.73
2022-12-04T09:16:25.925Z,45.92
2022-12-04T09:18:53.443Z,46.42
2022-12-04T09:21:22.092Z,45.56
2022-12-04T09:23:49.424Z,44.83
2022-12-04T09:26:25.877Z,44.38
2022-12-04T09:28:54.922Z,44.56
2022-12-04T09:31:23.791Z,44.30
2022-12-04T09:33:51.898Z,45.40
2022-12-04T09:36:20.050Z,45.82
2022-12-04T09:38:52.326Z,44.78
2022-12-04T09:42:02.847Z,44.95
2022-12-04T09:44:52.829Z,44.79
2022-12-04T09:47:28.521Z,45.10
2022-12-04T09:50:24.006Z,44.02
2022-12-04T09:53:00.987Z,44.78
2022-12-04T09:55:33.654Z,44.23
2022-12-04T09:58:04.480Z,44.91
2022-12-04T10:00:36.613Z,44.51
2022-12-04T10:03:07.038Z,44.21
2022-12-04T10:05:56.256Z,44.55
2022-12-04T10:08:41.874Z,45.48
2022-12-04T10:11:19.855Z,44.25
2022-12-04T10:14:06.289Z,44.34
2022-12-04T10:17:32.646Z,45.89
2022-12-04T10:20:02.772Z,44.80
2022-12-04T10:22:57.805Z,44.01
2022-12-04T10:25:29.342Z,44.54
2022-12-04T10:27:59.849Z,44.37
2022-12-04T10:30:31.114Z,44.39
2022-12-04T10:33:17.279Z,43.34
2022-12-04T10:35:47.928Z,42.12
2022-12-04T10:38:42.820Z,42.75
2022-12-04T10:41:28.551Z,42.95
2022-12-04T10:43:56.138Z,44.52
2022-12-04T10:46:30.871Z,43.52
2022-12-04T10:49:21.118Z,42.62
2022-12-04T10:51:48.696Z,43.28
2022-12-04T10:54:23.444Z,43.79
2022-12-04T10:57:11.420Z,43.54
2022-12-04T10:59:54.063Z,44.27
2022-12-04T11:02:30.660Z,43.76
2022-12-04T11:05:00.849Z,42.86
2022-12-04T11:07:37.272Z,42.74
2022-12-04T11:10:18.911Z,44.01
2022-12-04T11:13:00.897Z,43.10
2022-12-04T11:15:28.607Z,43.93
2022-12-04T11:17:55.747Z,44.18
2022-12-04T11:20:28.049Z,44.22
2022-12-04T11:22:58.074Z,44.65
2022-12-04T11:25:37.583Z,44.41
2022-12-04T11:28:05.622Z,44.71
2022-12-04T11:30:38.598Z,44.45
2022-12-04T11:33:18.723Z,44.67
2022-12-04T11:35:54.333Z,45.52
2022-12-04T11:38:26.796Z,44.86
2022-12-04T11:40:58.852Z,44.37
2022-12-04T11:43:29.533Z,44.42
2022-12-04T11:46:03.370Z,45.06
2022-12-04T11:48:32.522Z,44.38
2022-12-04T11:51:37.127Z,44.02
2022-12-04T11:54:25.615Z,43.83
2022-12-04T11:57:23.987Z,45.04
2022-12-04T12:00:17.062Z,43.41
2022-12-04T12:03:15.329Z,43.93
2022-12-04T12:06:18.780Z,44.63
2022-12-04T12:08:51.071Z,44.85
2022-12-04T12:11:27.209Z,44.66
2022-12-04T12:14:03.626Z,45.30
2022-12-04T12:17:04.772Z,45.10
2022-12-04T12:19:34.850Z,45.25
2022-12-04T12:22:05.656Z,45.36
2022-12-04T12:24:51.321Z,44.94
2022-12-04T12:27:54.097Z,44.69
2022-12-04T12:30:23.270Z,44.84
2022-12-04T12:33:10.272Z,45.81
2022-12-04T12:36:04.428Z,45.15
2022-12-04T12:39:01.580Z,46.03
2022-12-04T12:41:52.441Z,46.23
2022-12-04T12:44:26.247Z,45.89
2022-12-04T12:47:09.892Z,46.47
2022-12-04T12:49:59.464Z,47.19
2022-12-04T12:52:59.236Z,46.51
2022-12-04T12:55:33.624Z,46.14
2022-12-04T12:58:14.697Z,45.88
2022-12-04T13:00:52.015Z,46.32
2022-12-04T13:03:45.385Z,46.18
2022-12-04T13:06:20.922Z,46.04
2022-12-04T13:09:08.296Z,46.09
2022-12-04T13:11:37.220Z,46.58
2022-12-04T13:14:05.827Z,45.94
2022-12-04T13:16:43.039Z,45.88
2022-12-04T13:19:13.443Z,47.03
2022-12-04T13:22:15.592Z,46.62
2022-12-04T13:24:59.040Z,46.26
2022-12-04T13:27:50.770Z,46.54
2022-12-04T13:30:24.159Z,46.94
2022-12-04T13:33:06.400Z,47.04
2022-12-04T13:35:45.678Z,46.63
2022-12-04T13:38:23.108Z,47.69
2022-12-04T13:41:03.229Z,47.71
2022-12-04T13:43:47.319Z,47.70
2022-12-04T13:46:40.762Z,48.20
2022-12-04T13:49:18.473Z,47.84
2022-12-04T13:51:47.621Z,48.59
2022-12-04T13:54:14.689Z,48.51
2022-12-04T13:56:44.674Z,48.52
2022-12-04T13:59:27.242Z,48.08
2022-12-04T14:01:57.149Z,47.99
2022-12-04T14:04:28.848Z,48.17
2022-12-04T14:07:00.071Z,48.22
2022-12-04T14:09:31.238Z,48.26
2022-12-04T14:12:02.163Z,48.27
2022-12-04T14:14:40.223Z,48.58
2022-12-04T14:17:19.265Z,48.70
2022-12-04T14:19:54.428Z,48.36
2022-12-04T14:22:42.366Z,48.84
2022-12-04T14:25:12.436Z,49.63
2022-12-04T14:27:45.429Z,49.16
2022-12-04T14:30:26.544Z,49.01
2022-12-04T14:32:59.229Z,49.33
2022-12-04T14:35:28.640Z,49.47
2022-12-04T14:37:59.964Z,48.90
2022-12-04T14:40:29.730Z,49.42
2022-12-04T14:42:57.111Z,49.31
2022-12-04T14:45:28.099Z,49.59
2022-12-04T14:48:17.253Z,50.14
2022-12-04T14:51:03.254Z,49.81
2022-12-04T14:54:00.706Z,50.28
2022-12-04T14:56:52.346Z,49.79
2022-12-04T14:59:23.056Z,50.25
2022-12-04T15:01:53.102Z,50.51
2022-12-04T15:04:34.972Z,50.75
2022-12-04T15:07:03.008Z,50.31
2022-12-04T15:09:48.624Z,50.25
2022-12-04T15:12:34.347Z,50.30
2022-12-04T15:15:14.025Z,50.33
2022-12-04T15:17:41.547Z,49.83
2022-12-04T15:20:16.910Z,50.24
2022-12-04T15:22:44.954Z,50.41
2022-12-04T15:25:43.199Z,49.83
2022-12-04T15:28:17.598Z,49.46
2022-12-04T15:30:46.097Z,49.54
2022-12-04T15:33:21.412Z,49.96
2022-12-04T15:35:57.250Z,50.02
2022-12-04T15:38:24.595Z,49.96
2022-12-04T15:40:57.831Z,50.43
2022-12-04T15:43:39.372Z,50.23
2022-12-04T15:46:23.687Z,50.49
2022-12-04T15:48:51.213Z,50.45
2022-12-04T15:51:21.907Z,50.73
2022-12-04T15:53:49.250Z,50.25
2022-12-04T15:56:22.438Z,50.00
2022-12-04T15:58:57.445Z,50.55
2022-12-04T16:01:24.970Z,50.54
2022-12-04T16:03:55.596Z,51.16
2022-12-04T16:06:29.460Z,51.13
2022-12-04T16:09:13.186Z,50.57
2022-12-04T16:11:41.151Z,50.42
2022-12-04T16:14:08.785Z,50.59
2022-12-04T16:16:37.445Z,50.52
2022-12-04T16:19:10.346Z,50.31
2022-12-04T16:21:37.607Z,51.06
2022-12-04T16:24:06.832Z,50.25
2022-12-04T16:26:34.328Z,50.22
2022-12-04T16:29:02.674Z,51.19
2022-12-04T16:31:29.993Z,50.80
2022-12-04T16:33:57.531Z,50.42
2022-12-04T16:36:25.682Z,50.20
2022-12-04T16:38:52.977Z,50.47
2022-12-04T16:41:21.816Z,50.65
2022-12-04T16:43:58.097Z,50.67
2022-12-04T16:46:27.887Z,50.26
2022-12-04T16:48:55.406Z,50.14
2022-12-04T16:51:26.445Z,50.59
2022-12-04T16:53:55.137Z,51.14
2022-12-04T16:56:22.961Z,50.49
2022-12-04T16:58:51.061Z,51.18
2022-12-04T17:01:34.659Z,51.65
2022-12-04T17:04:01.913Z,51.30
2022-12-04T17:06:29.424Z,51.29
2022-12-04T17:08:58.488Z,51.29
2022-12-04T17:11:25.620Z,51.19
2022-12-04T17:13:52.911Z,51.44
2022-12-04T17:16:20.333Z,51.38
2022-12-04T17:18:47.900Z,51.46
2022-12-04T17:21:15.859Z,51.62
2022-12-04T17:23:43.294Z,51.24
2022-12-04T17:26:12.750Z,51.23
2022-12-04T17:28:40.996Z,51.42
2022-12-04T17:31:14.770Z,51.79
2022-12-04T17:33:43.260Z,51.36
2022-12-04T17:36:13.047Z,50.91
2022-12-04T17:38:41.115Z,51.08
2022-12-04T17:41:10.687Z,51.08
2022-12-04T17:43:37.868Z,51.04
2022-12-04T17:46:12.427Z,51.67
2022-12-04T17:48:40.027Z,49.73
2022-12-04T17:51:14.020Z,50.43
2022-12-04T17:53:41.462Z,51.06
2022-12-04T17:56:11.863Z,50.68
2022-12-04T17:58:39.584Z,50.76
2022-12-04T18:01:10.088Z,51.14
2022-12-04T18:03:38.559Z,50.70
2022-12-04T18:06:21.260Z,50.09
2022-12-04T18:08:50.406Z,51.32
2022-12-04T18:11:20.903Z,50.98
2022-12-04T18:13:59.175Z,51.39
2022-12-04T18:16:27.819Z,50.79
2022-12-04T18:18:56.225Z,50.94
2022-12-04T18:21:24.387Z,50.85
2022-12-04T18:23:51.916Z,51.48
2022-12-04T18:26:23.162Z,51.64
2022-12-04T18:28:51.312Z,52.07
2022-12-04T18:31:19.683Z,52.82
2022-12-04T18:33:48.164Z,52.51
2022-12-04T18:36:19.363Z,52.33
2022-12-04T18:38:47.567Z,51.80
2022-12-04T18:41:16.136Z,52.28
2022-12-04T18:43:45.094Z,52.30
2022-12-04T18:46:15.403Z,52.89
2022-12-04T18:48:44.223Z,53.03
2022-12-04T18:51:14.732Z,52.68
2022-12-04T18:53:42.504Z,52.40
2022-12-04T18:56:09.790Z,52.74
2022-12-04T18:58:39.368Z,52.90
2022-12-04T19:01:09.092Z,52.82
2022-12-04T19:03:36.551Z,52.87
2022-12-04T19:06:04.193Z,52.70
2022-12-04T19:08:37.559Z,52.97
2022-12-04T19:11:16.020Z,53.08
2022-12-04T19:13:44.327Z,53.15
2022-12-04T19:16:13.526Z,52.69
2022-12-04T19:18:42.319Z,52.67
2022-12-04T19:21:10.543Z,52.37
2022-12-04T19:23:37.806Z,52.10
2022-12-04T19:26:05.913Z,52.58
2022-12-04T19:28:33.892Z,52.33
2022-12-04T19:31:02.170Z,50.97
2022-12-04T19:33:30.358Z,51.22
2022-12-04T19:36:02.851Z,51.89
2022-12-04T19:38:33.531Z,51.82
2022-12-04T19:41:19.032Z,51.98
2022-12-04T19:43:47.472Z,51.67
2022-12-04T19:46:18.427Z,52.82
2022-12-04T19:48:50.084Z,52.49
2022-12-04T19:51:19.181Z,52.64
2022-12-04T19:53:47.315Z,52.84
2022-12-04T19:56:17.773Z,52.85
2022-12-04T19:58:45.647Z,52.15
2022-12-04T20:01:15.864Z,52.56
2022-12-04T20:03:44.690Z,52.21
2022-12-04T20:06:15.843Z,52.41
2022-12-04T20:08:43.499Z,52.91
2022-12-04T20:11:21.745Z,53.21
2022-12-04T20:13:49.830Z,53.08
2022-12-04T20:16:19.581Z,53.51
2022-12-04T20:18:48.733Z,52.94
2022-12-04T20:21:15.981Z,52.88
2022-12-04T20:23:46.836Z,53.24
2022-12-04T20:26:14.806Z,53.97
2022-12-04T20:28:42.117Z,53.41
2022-12-04T20:31:16.269Z,54.25
2022-12-04T20:33:44.877Z,53.66
2022-12-04T20:36:13.153Z,53.05
2022-12-04T20:38:40.605Z,53.30
2022-12-04T20:41:10.171Z,53.90
2022-12-04T20:43:37.994Z,53.88
2022-12-04T20:46:35.459Z,53.39
2022-12-04T20:49:20.674Z,53.69
2022-12-04T20:51:50.578Z,52.90
2022-12-04T20:54:20.583Z,53.13
2022-12-04T20:56:49.172Z,53.06
2022-12-04T20:59:19.037Z,53.22
2022-12-04T21:01:47.222Z,53.21
2022-12-04T21:04:14.734Z,53.30
2022-12-04T21:06:42.105Z,53.92
2022-12-04T21:09:18.202Z,53.54
2022-12-04T21:11:48.287Z,54.02
2022-12-04T21:14:37.386Z,54.12
2022-12-04T21:17:06.913Z,53.77
2022-12-04T21:19:33.981Z,54.34
2022-12-04T21:22:01.381Z,53.92
2022-12-04T21:24:28.911Z,54.13
2022-12-04T21:26:56.477Z,53.92
2022-12-04T21:29:23.958Z,54.34
2022-12-04T21:31:51.014Z,53.67
2022-12-04T21:34:18.938Z,54.39
2022-12-04T21:36:46.581Z,53.91
2022-12-04T21:39:15.079Z,53.68
2022-12-04T21:42:01.601Z,54.22
2022-12-04T21:44:28.842Z,54.43
2022-12-04T21:46:56.449Z,54.21
2022-12-04T21:49:23.523Z,54.82
2022-12-04T21:51:58.912Z,54.71
2022-12-04T21:54:28.287Z,54.41
2022-12-04T21:56:56.246Z,54.82
2022-12-04T21:59:24.264Z,54.60
2022-12-04T22:01:51.399Z,54.14
2022-12-04T22:04:18.682Z,53.84
2022-12-04T22:06:45.932Z,53.29
2022-12-04T22:09:13.445Z,53.54
2022-12-04T22:11:42.181Z,53.36
2022-12-04T22:14:10.209Z,53.43
2022-12-04T22:16:41.878Z,53.50
2022-12-04T22:19:11.419Z,53.19
2022-12-04T22:21:38.763Z,53.87
2022-12-04T22:24:25.876Z,52.66
2022-12-04T22:26:52.899Z,52.22
2022-12-04T22:29:50.150Z,52.98
2022-12-04T22:32:07.072Z,52.80
2022-12-04T22:34:34.475Z,52.97
2022-12-04T22:37:01.549Z,52.60
2022-12-04T22:39:28.972Z,52.74
2022-12-04T22:41:56.063Z,53.10
2022-12-04T22:44:23.052Z,53.19
2022-12-04T22:46:50.240Z,52.71
2022-12-04T22:49:18.539Z,52.84
2022-12-04T22:51:45.649Z,52.84
2022-12-04T22:54:15.521Z,52.58
2022-12-04T22:56:44.286Z,52.76
2022-12-04T22:59:11.460Z,53.34
2022-12-04T23:01:38.686Z,53.34
2022-12-04T23:04:06.260Z,53.10
2022-12-04T23:06:33.947Z,52.23
2022-12-04T23:09:04.910Z,52.52
2022-12-04T23:11:32.161Z,52.80
2022-12-04T23:14:02.498Z,53.40
2022-12-04T23:16:31.727Z,53.53
2022-12-04T23:18:58.872Z,53.13
2022-12-04T23:21:27.057Z,53.28
2022-12-04T23:23:55.195Z,53.36
2022-12-04T23:26:30.022Z,53.60
2022-12-04T23:28:57.669Z,53.57
2022-12-04T23:31:25.608Z,53.38
2022-12-04T23:33:52.749Z,53.35
2022-12-04T23:36:20.273Z,53.57
2022-12-04T23:38:48.053Z,52.83
2022-12-04T23:41:21.689Z,53.43
2022-12-04T23:43:51.198Z,53.01
2022-12-04T23:46:23.994Z,52.93
2022-12-04T23:48:51.124Z,52.77
2022-12-04T23:51:19.517Z,52.02
2022-12-04T23:53:47.762Z,51.90
2022-12-04T23:56:23.731Z,52.08
2022-12-04T23:58:53.091Z,52.87
